sensor_id;sensor_type;location;lat;lon;timestamp;P1;durP1;ratioP1;P2;durP2;ratioP2
18520;SDS011;9390;51.244;6.982;2023-03-05T00:03:34;18.15;;;5.13;;
18520;SDS011;9390;51.244;6.982;2023-03-05T00:06:06;16.80;;;5.25;;
18520;SDS011;9390;51.244;6.982;2023-03-05T00:08:38;19.02;;;5.68;;
18520;SDS011;9390;51.244;6.982;2023-03-05T00:11:10;14.10;;;6.05;;
18520;SDS011;9390;51.244;6.982;2023-03-05T00:13:44;23.80;;;7.05;;
18520;SDS011;9390;51.244;6.982;2023-03-05T00:16:16;20.77;;;5.55;;
18520;SDS011;9390;51.244;6.982;2023-03-05T00:18:47;14.68;;;5.22;;
18520;SDS011;9390;51.244;6.982;2023-03-05T00:21:20;21.13;;;6.28;;
18520;SDS011;9390;51.244;6.982;2023-03-05T00:26:24;18.85;;;4.95;;
18520;SDS011;9390;51.244;6.982;2023-03-05T00:28:58;14.18;;;4.32;;
18520;SDS011;9390;51.244;6.982;2023-03-05T00:31:30;16.83;;;4.40;;
18520;SDS011;9390;51.244;6.982;2023-03-05T00:34:03;16.33;;;4.38;;
18520;SDS011;9390;51.244;6.982;2023-03-05T00:36:38;12.65;;;3.70;;
18520;SDS011;9390;51.244;6.982;2023-03-05T00:39:10;15.20;;;3.90;;
18520;SDS011;9390;51.244;6.982;2023-03-05T00:41:42;17.95;;;3.40;;
18520;SDS011;9390;51.244;6.982;2023-03-05T00:44:15;11.35;;;3.63;;
18520;SDS011;9390;51.244;6.982;2023-03-05T00:46:47;12.63;;;2.95;;
18520;SDS011;9390;51.244;6.982;2023-03-05T00:49:19;17.58;;;3.95;;
18520;SDS011;9390;51.244;6.982;2023-03-05T00:51:50;14.88;;;3.67;;
18520;SDS011;9390;51.244;6.982;2023-03-05T00:54:22;14.20;;;3.83;;
18520;SDS011;9390;51.244;6.982;2023-03-05T00:56:54;20.80;;;4.00;;
18520;SDS011;9390;51.244;6.982;2023-03-05T00:59:27;13.30;;;4.45;;
18520;SDS011;9390;51.244;6.982;2023-03-05T01:01:58;22.67;;;4.38;;
18520;SDS011;9390;51.244;6.982;2023-03-05T01:04:30;13.40;;;4.22;;
18520;SDS011;9390;51.244;6.982;2023-03-05T01:07:02;14.50;;;4.10;;
18520;SDS011;9390;51.244;6.982;2023-03-05T01:09:34;15.02;;;3.47;;
18520;SDS011;9390;51.244;6.982;2023-03-05T01:12:06;17.92;;;3.50;;
18520;SDS011;9390;51.244;6.982;2023-03-05T01:14:39;18.67;;;4.28;;
18520;SDS011;9390;51.244;6.982;2023-03-05T01:17:11;18.70;;;5.07;;
18520;SDS011;9390;51.244;6.982;2023-03-05T01:19:43;23.83;;;5.18;;
18520;SDS011;9390;51.244;6.982;2023-03-05T01:22:14;17.10;;;4.95;;
18520;SDS011;9390;51.244;6.982;2023-03-05T01:24:46;17.90;;;4.60;;
18520;SDS011;9390;51.244;6.982;2023-03-05T01:27:18;15.63;;;4.95;;
18520;SDS011;9390;51.244;6.982;2023-03-05T01:29:50;19.63;;;5.82;;
18520;SDS011;9390;51.244;6.982;2023-03-05T01:32:22;21.33;;;4.57;;
18520;SDS011;9390;51.244;6.982;2023-03-05T01:34:54;24.25;;;5.78;;
18520;SDS011;9390;51.244;6.982;2023-03-05T01:37:26;19.77;;;4.50;;
18520;SDS011;9390;51.244;6.982;2023-03-05T01:39:58;22.20;;;5.07;;
18520;SDS011;9390;51.244;6.982;2023-03-05T01:42:30;19.08;;;4.63;;
18520;SDS011;9390;51.244;6.982;2023-03-05T01:45:05;17.10;;;4.95;;
18520;SDS011;9390;51.244;6.982;2023-03-05T01:47:40;18.98;;;4.40;;
18520;SDS011;9390;51.244;6.982;2023-03-05T01:50:13;11.63;;;4.45;;
18520;SDS011;9390;51.244;6.982;2023-03-05T01:52:48;15.35;;;4.75;;
18520;SDS011;9390;51.244;6.982;2023-03-05T01:55:22;13.25;;;4.30;;
18520;SDS011;9390;51.244;6.982;2023-03-05T01:57:56;17.80;;;4.32;;
18520;SDS011;9390;51.244;6.982;2023-03-05T02:00:33;15.35;;;4.85;;
18520;SDS011;9390;51.244;6.982;2023-03-05T02:03:06;18.10;;;4.25;;
18520;SDS011;9390;51.244;6.982;2023-03-05T02:05:41;15.98;;;3.38;;
18520;SDS011;9390;51.244;6.982;2023-03-05T02:08:14;12.77;;;3.92;;
18520;SDS011;9390;51.244;6.982;2023-03-05T02:10:47;10.02;;;3.30;;
18520;SDS011;9390;51.244;6.982;2023-03-05T02:13:21;16.08;;;3.08;;
18520;SDS011;9390;51.244;6.982;2023-03-05T02:15:56;15.63;;;3.58;;
18520;SDS011;9390;51.244;6.982;2023-03-05T02:18:29;12.70;;;2.95;;
18520;SDS011;9390;51.244;6.982;2023-03-05T02:21:03;13.20;;;3.40;;
18520;SDS011;9390;51.244;6.982;2023-03-05T02:23:36;10.00;;;2.90;;
18520;SDS011;9390;51.244;6.982;2023-03-05T02:26:09;17.98;;;3.67;;
18520;SDS011;9390;51.244;6.982;2023-03-05T02:28:41;18.58;;;4.30;;
18520;SDS011;9390;51.244;6.982;2023-03-05T02:31:15;10.35;;;3.50;;
18520;SDS011;9390;51.244;6.982;2023-03-05T02:36:21;19.95;;;3.92;;
18520;SDS011;9390;51.244;6.982;2023-03-05T02:38:53;18.52;;;4.45;;
18520;SDS011;9390;51.244;6.982;2023-03-05T02:41:26;14.32;;;3.92;;
18520;SDS011;9390;51.244;6.982;2023-03-05T02:44:00;17.50;;;4.00;;
18520;SDS011;9390;51.244;6.982;2023-03-05T02:46:31;14.68;;;4.72;;
18520;SDS011;9390;51.244;6.982;2023-03-05T02:49:03;20.48;;;4.60;;
18520;SDS011;9390;51.244;6.982;2023-03-05T02:51:35;16.15;;;4.07;;
18520;SDS011;9390;51.244;6.982;2023-03-05T02:54:07;15.10;;;4.10;;
18520;SDS011;9390;51.244;6.982;2023-03-05T02:56:38;12.43;;;4.15;;
18520;SDS011;9390;51.244;6.982;2023-03-05T02:59:09;18.42;;;4.45;;
18520;SDS011;9390;51.244;6.982;2023-03-05T03:01:41;17.67;;;4.40;;
18520;SDS011;9390;51.244;6.982;2023-03-05T03:04:12;25.48;;;5.38;;
18520;SDS011;9390;51.244;6.982;2023-03-05T03:06:45;18.48;;;4.80;;
18520;SDS011;9390;51.244;6.982;2023-03-05T03:09:16;13.32;;;3.90;;
18520;SDS011;9390;51.244;6.982;2023-03-05T03:11:48;22.13;;;3.90;;
18520;SDS011;9390;51.244;6.982;2023-03-05T03:14:19;14.50;;;4.10;;
18520;SDS011;9390;51.244;6.982;2023-03-05T03:16:51;21.45;;;4.90;;
18520;SDS011;9390;51.244;6.982;2023-03-05T03:19:22;22.60;;;4.30;;
18520;SDS011;9390;51.244;6.982;2023-03-05T03:21:55;12.00;;;3.50;;
18520;SDS011;9390;51.244;6.982;2023-03-05T03:24:28;29.42;;;6.20;;
18520;SDS011;9390;51.244;6.982;2023-03-05T03:26:59;16.17;;;4.07;;
18520;SDS011;9390;51.244;6.982;2023-03-05T03:29:31;10.82;;;4.07;;
18520;SDS011;9390;51.244;6.982;2023-03-05T03:32:03;18.13;;;3.63;;
18520;SDS011;9390;51.244;6.982;2023-03-05T03:34:35;12.10;;;3.13;;
18520;SDS011;9390;51.244;6.982;2023-03-05T03:37:07;18.90;;;3.72;;
18520;SDS011;9390;51.244;6.982;2023-03-05T03:39:39;15.52;;;3.65;;
18520;SDS011;9390;51.244;6.982;2023-03-05T03:42:10;10.32;;;3.65;;
18520;SDS011;9390;51.244;6.982;2023-03-05T03:44:42;13.40;;;3.60;;
18520;SDS011;9390;51.244;6.982;2023-03-05T03:47:13;12.65;;;2.78;;
18520;SDS011;9390;51.244;6.982;2023-03-05T03:49:45;12.88;;;3.30;;
18520;SDS011;9390;51.244;6.982;2023-03-05T03:52:17;12.45;;;3.00;;
18520;SDS011;9390;51.244;6.982;2023-03-05T03:54:49;19.20;;;3.75;;
18520;SDS011;9390;51.244;6.982;2023-03-05T03:57:22;16.98;;;3.50;;
18520;SDS011;9390;51.244;6.982;2023-03-05T03:59:53;16.73;;;3.33;;
18520;SDS011;9390;51.244;6.982;2023-03-05T04:02:24;14.10;;;3.03;;
18520;SDS011;9390;51.244;6.982;2023-03-05T04:04:56;10.48;;;3.20;;
18520;SDS011;9390;51.244;6.982;2023-03-05T04:07:29;13.40;;;3.15;;
18520;SDS011;9390;51.244;6.982;2023-03-05T04:10:00;19.50;;;3.13;;
18520;SDS011;9390;51.244;6.982;2023-03-05T04:12:31;11.77;;;3.20;;
18520;SDS011;9390;51.244;6.982;2023-03-05T04:15:03;12.32;;;3.30;;
18520;SDS011;9390;51.244;6.982;2023-03-05T04:17:36;13.90;;;3.35;;
18520;SDS011;9390;51.244;6.982;2023-03-05T04:20:08;11.10;;;2.70;;
18520;SDS011;9390;51.244;6.982;2023-03-05T04:22:42;12.00;;;4.13;;
18520;SDS011;9390;51.244;6.982;2023-03-05T04:25:14;13.32;;;3.08;;
18520;SDS011;9390;51.244;6.982;2023-03-05T04:27:45;8.82;;;2.92;;
18520;SDS011;9390;51.244;6.982;2023-03-05T04:30:16;10.15;;;3.00;;
18520;SDS011;9390;51.244;6.982;2023-03-05T04:32:48;24.55;;;3.15;;
18520;SDS011;9390;51.244;6.982;2023-03-05T04:35:19;20.73;;;2.67;;
18520;SDS011;9390;51.244;6.982;2023-03-05T04:37:52;15.95;;;3.00;;
18520;SDS011;9390;51.244;6.982;2023-03-05T04:40:24;11.55;;;2.95;;
18520;SDS011;9390;51.244;6.982;2023-03-05T04:42:55;10.18;;;2.63;;
18520;SDS011;9390;51.244;6.982;2023-03-05T04:45:26;9.48;;;3.25;;
18520;SDS011;9390;51.244;6.982;2023-03-05T04:47:58;11.88;;;2.92;;
18520;SDS011;9390;51.244;6.982;2023-03-05T04:50:30;12.48;;;3.22;;
18520;SDS011;9390;51.244;6.982;2023-03-05T04:53:02;15.85;;;3.58;;
18520;SDS011;9390;51.244;6.982;2023-03-05T04:58:06;11.32;;;2.85;;
18520;SDS011;9390;51.244;6.982;2023-03-05T05:00:37;11.32;;;3.30;;
18520;SDS011;9390;51.244;6.982;2023-03-05T05:03:09;15.07;;;3.08;;
18520;SDS011;9390;51.244;6.982;2023-03-05T05:05:40;9.68;;;2.83;;
18520;SDS011;9390;51.244;6.982;2023-03-05T05:08:13;15.55;;;3.20;;
18520;SDS011;9390;51.244;6.982;2023-03-05T05:10:44;11.73;;;4.10;;
18520;SDS011;9390;51.244;6.982;2023-03-05T05:13:15;10.90;;;2.80;;
18520;SDS011;9390;51.244;6.982;2023-03-05T05:15:47;9.02;;;2.78;;
18520;SDS011;9390;51.244;6.982;2023-03-05T05:18:18;6.93;;;2.63;;
18520;SDS011;9390;51.244;6.982;2023-03-05T05:20:50;9.32;;;3.10;;
18520;SDS011;9390;51.244;6.982;2023-03-05T05:23:22;13.93;;;3.00;;
18520;SDS011;9390;51.244;6.982;2023-03-05T05:25:55;9.70;;;3.22;;
18520;SDS011;9390;51.244;6.982;2023-03-05T05:30:58;15.05;;;2.88;;
18520;SDS011;9390;51.244;6.982;2023-03-05T05:33:30;13.68;;;3.13;;
18520;SDS011;9390;51.244;6.982;2023-03-05T05:36:02;18.98;;;2.90;;
18520;SDS011;9390;51.244;6.982;2023-03-05T05:38:35;15.40;;;2.83;;
18520;SDS011;9390;51.244;6.982;2023-03-05T05:41:07;15.05;;;4.20;;
18520;SDS011;9390;51.244;6.982;2023-03-05T05:43:40;14.60;;;3.10;;
18520;SDS011;9390;51.244;6.982;2023-03-05T05:46:12;10.02;;;3.40;;
18520;SDS011;9390;51.244;6.982;2023-03-05T05:48:45;12.27;;;3.30;;
18520;SDS011;9390;51.244;6.982;2023-03-05T05:51:17;13.35;;;2.95;;
18520;SDS011;9390;51.244;6.982;2023-03-05T05:53:52;11.00;;;3.10;;
18520;SDS011;9390;51.244;6.982;2023-03-05T05:56:23;15.85;;;3.40;;
18520;SDS011;9390;51.244;6.982;2023-03-05T05:58:55;10.15;;;3.00;;
18520;SDS011;9390;51.244;6.982;2023-03-05T06:01:28;12.25;;;3.20;;
18520;SDS011;9390;51.244;6.982;2023-03-05T06:04:00;14.05;;;2.95;;
18520;SDS011;9390;51.244;6.982;2023-03-05T06:06:32;17.55;;;3.13;;
18520;SDS011;9390;51.244;6.982;2023-03-05T06:09:05;12.57;;;3.15;;
18520;SDS011;9390;51.244;6.982;2023-03-05T06:11:36;9.65;;;3.35;;
18520;SDS011;9390;51.244;6.982;2023-03-05T06:14:08;15.60;;;3.10;;
18520;SDS011;9390;51.244;6.982;2023-03-05T06:16:40;12.90;;;3.00;;
18520;SDS011;9390;51.244;6.982;2023-03-05T06:19:12;11.50;;;3.33;;
18520;SDS011;9390;51.244;6.982;2023-03-05T06:21:43;11.27;;;2.97;;
18520;SDS011;9390;51.244;6.982;2023-03-05T06:24:16;6.53;;;2.72;;
18520;SDS011;9390;51.244;6.982;2023-03-05T06:26:48;17.45;;;3.30;;
18520;SDS011;9390;51.244;6.982;2023-03-05T06:29:20;13.23;;;3.78;;
18520;SDS011;9390;51.244;6.982;2023-03-05T06:31:51;16.83;;;3.45;;
18520;SDS011;9390;51.244;6.982;2023-03-05T06:34:22;12.50;;;3.25;;
18520;SDS011;9390;51.244;6.982;2023-03-05T06:36:54;11.60;;;3.17;;
18520;SDS011;9390;51.244;6.982;2023-03-05T06:39:27;14.93;;;3.15;;
18520;SDS011;9390;51.244;6.982;2023-03-05T06:41:59;11.65;;;2.88;;
18520;SDS011;9390;51.244;6.982;2023-03-05T06:44:30;8.82;;;3.10;;
18520;SDS011;9390;51.244;6.982;2023-03-05T06:47:03;14.77;;;3.22;;
18520;SDS011;9390;51.244;6.982;2023-03-05T06:49:34;10.27;;;2.70;;
18520;SDS011;9390;51.244;6.982;2023-03-05T06:52:06;8.10;;;2.78;;
18520;SDS011;9390;51.244;6.982;2023-03-05T06:54:40;15.93;;;3.63;;
18520;SDS011;9390;51.244;6.982;2023-03-05T06:57:11;13.75;;;3.25;;
18520;SDS011;9390;51.244;6.982;2023-03-05T06:59:43;10.27;;;2.78;;
18520;SDS011;9390;51.244;6.982;2023-03-05T07:02:14;14.65;;;3.70;;
18520;SDS011;9390;51.244;6.982;2023-03-05T07:04:47;8.30;;;2.50;;
18520;SDS011;9390;51.244;6.982;2023-03-05T07:07:19;20.92;;;4.90;;
18520;SDS011;9390;51.244;6.982;2023-03-05T07:09:52;12.52;;;2.83;;
18520;SDS011;9390;51.244;6.982;2023-03-05T07:12:23;11.07;;;3.30;;
18520;SDS011;9390;51.244;6.982;2023-03-05T07:14:55;9.60;;;3.03;;
18520;SDS011;9390;51.244;6.982;2023-03-05T07:17:26;9.82;;;3.15;;
18520;SDS011;9390;51.244;6.982;2023-03-05T07:19:58;10.25;;;3.10;;
18520;SDS011;9390;51.244;6.982;2023-03-05T07:22:29;17.05;;;3.10;;
18520;SDS011;9390;51.244;6.982;2023-03-05T07:25:03;15.15;;;3.50;;
18520;SDS011;9390;51.244;6.982;2023-03-05T07:27:35;9.40;;;2.95;;
18520;SDS011;9390;51.244;6.982;2023-03-05T07:30:07;15.25;;;2.97;;
18520;SDS011;9390;51.244;6.982;2023-03-05T07:32:40;9.88;;;3.67;;
18520;SDS011;9390;51.244;6.982;2023-03-05T07:35:12;10.10;;;3.63;;
18520;SDS011;9390;51.244;6.982;2023-03-05T07:37:43;10.90;;;3.15;;
18520;SDS011;9390;51.244;6.982;2023-03-05T07:40:16;13.07;;;3.08;;
18520;SDS011;9390;51.244;6.982;2023-03-05T07:42:48;12.98;;;3.35;;
18520;SDS011;9390;51.244;6.982;2023-03-05T07:45:19;12.55;;;3.97;;
18520;SDS011;9390;51.244;6.982;2023-03-05T07:47:50;13.77;;;3.33;;
18520;SDS011;9390;51.244;6.982;2023-03-05T07:50:22;13.95;;;3.75;;
18520;SDS011;9390;51.244;6.982;2023-03-05T07:52:53;11.75;;;4.10;;
18520;SDS011;9390;51.244;6.982;2023-03-05T07:55:26;15.98;;;3.83;;
18520;SDS011;9390;51.244;6.982;2023-03-05T07:57:57;11.65;;;3.63;;
18520;SDS011;9390;51.244;6.982;2023-03-05T08:00:29;13.05;;;3.80;;
18520;SDS011;9390;51.244;6.982;2023-03-05T08:03:00;17.42;;;4.50;;
18520;SDS011;9390;51.244;6.982;2023-03-05T08:05:32;10.55;;;2.95;;
18520;SDS011;9390;51.244;6.982;2023-03-05T08:08:03;13.45;;;4.03;;
18520;SDS011;9390;51.244;6.982;2023-03-05T08:10:36;14.05;;;3.67;;
18520;SDS011;9390;51.244;6.982;2023-03-05T08:15:39;13.40;;;3.78;;
18520;SDS011;9390;51.244;6.982;2023-03-05T08:18:11;14.48;;;4.28;;
18520;SDS011;9390;51.244;6.982;2023-03-05T08:20:42;13.32;;;3.35;;
18520;SDS011;9390;51.244;6.982;2023-03-05T08:23:14;14.27;;;3.70;;
18520;SDS011;9390;51.244;6.982;2023-03-05T08:25:46;17.15;;;4.03;;
18520;SDS011;9390;51.244;6.982;2023-03-05T08:28:18;17.60;;;4.60;;
18520;SDS011;9390;51.244;6.982;2023-03-05T08:30:49;13.20;;;3.65;;
18520;SDS011;9390;51.244;6.982;2023-03-05T08:33:21;10.50;;;3.30;;
18520;SDS011;9390;51.244;6.982;2023-03-05T08:35:52;15.73;;;3.92;;
18520;SDS011;9390;51.244;6.982;2023-03-05T08:38:23;17.70;;;4.97;;
18520;SDS011;9390;51.244;6.982;2023-03-05T08:40:57;15.90;;;4.10;;
18520;SDS011;9390;51.244;6.982;2023-03-05T08:43:28;14.25;;;3.63;;
18520;SDS011;9390;51.244;6.982;2023-03-05T08:46:00;19.20;;;4.78;;
18520;SDS011;9390;51.244;6.982;2023-03-05T08:48:32;11.18;;;3.88;;
18520;SDS011;9390;51.244;6.982;2023-03-05T08:51:04;13.07;;;4.38;;
18520;SDS011;9390;51.244;6.982;2023-03-05T08:53:36;18.80;;;4.35;;
18520;SDS011;9390;51.244;6.982;2023-03-05T08:56:09;12.77;;;3.65;;
18520;SDS011;9390;51.244;6.982;2023-03-05T08:58:43;12.25;;;3.55;;
18520;SDS011;9390;51.244;6.982;2023-03-05T09:01:15;12.98;;;3.58;;
18520;SDS011;9390;51.244;6.982;2023-03-05T09:03:46;16.95;;;4.03;;
18520;SDS011;9390;51.244;6.982;2023-03-05T09:06:18;10.93;;;3.75;;
18520;SDS011;9390;51.244;6.982;2023-03-05T09:08:49;16.85;;;4.43;;
18520;SDS011;9390;51.244;6.982;2023-03-05T09:11:22;12.55;;;4.20;;
18520;SDS011;9390;51.244;6.982;2023-03-05T09:13:54;17.98;;;5.03;;
18520;SDS011;9390;51.244;6.982;2023-03-05T09:16:25;14.35;;;4.03;;
18520;SDS011;9390;51.244;6.982;2023-03-05T09:18:57;14.15;;;3.92;;
18520;SDS011;9390;51.244;6.982;2023-03-05T09:21:29;12.68;;;4.38;;
18520;SDS011;9390;51.244;6.982;2023-03-05T09:24:01;13.20;;;3.95;;
18520;SDS011;9390;51.244;6.982;2023-03-05T09:26:34;15.02;;;4.60;;
18520;SDS011;9390;51.244;6.982;2023-03-05T09:29:06;12.63;;;4.55;;
18520;SDS011;9390;51.244;6.982;2023-03-05T09:31:38;13.45;;;4.63;;
18520;SDS011;9390;51.244;6.982;2023-03-05T09:34:10;12.38;;;4.55;;
18520;SDS011;9390;51.244;6.982;2023-03-05T09:36:42;15.90;;;5.03;;
18520;SDS011;9390;51.244;6.982;2023-03-05T09:39:13;15.30;;;5.40;;
18520;SDS011;9390;51.244;6.982;2023-03-05T09:41:53;15.82;;;5.57;;
18520;SDS011;9390;51.244;6.982;2023-03-05T09:44:45;14.52;;;5.55;;
18520;SDS011;9390;51.244;6.982;2023-03-05T09:47:25;13.65;;;4.90;;
18520;SDS011;9390;51.244;6.982;2023-03-05T09:50:10;15.30;;;5.30;;
18520;SDS011;9390;51.244;6.982;2023-03-05T09:52:44;15.02;;;5.18;;
18520;SDS011;9390;51.244;6.982;2023-03-05T09:55:19;17.25;;;5.43;;
18520;SDS011;9390;51.244;6.982;2023-03-05T09:57:56;18.30;;;5.68;;
18520;SDS011;9390;51.244;6.982;2023-03-05T10:00:32;14.85;;;6.47;;
18520;SDS011;9390;51.244;6.982;2023-03-05T10:03:05;12.65;;;4.95;;
18520;SDS011;9390;51.244;6.982;2023-03-05T10:05:49;13.40;;;5.38;;
18520;SDS011;9390;51.244;6.982;2023-03-05T10:08:27;15.85;;;5.43;;
18520;SDS011;9390;51.244;6.982;2023-03-05T10:11:04;13.88;;;5.25;;
18520;SDS011;9390;51.244;6.982;2023-03-05T10:13:44;12.18;;;5.20;;
18520;SDS011;9390;51.244;6.982;2023-03-05T10:16:25;15.25;;;5.60;;
18520;SDS011;9390;51.244;6.982;2023-03-05T10:19:12;14.50;;;5.45;;
18520;SDS011;9390;51.244;6.982;2023-03-05T10:21:48;13.38;;;4.72;;
18520;SDS011;9390;51.244;6.982;2023-03-05T10:24:24;14.32;;;5.22;;
18520;SDS011;9390;51.244;6.982;2023-03-05T10:27:01;13.43;;;6.05;;
18520;SDS011;9390;51.244;6.982;2023-03-05T10:29:42;10.75;;;5.40;;
18520;SDS011;9390;51.244;6.982;2023-03-05T10:32:23;13.18;;;5.68;;
18520;SDS011;9390;51.244;6.982;2023-03-05T10:35:05;18.05;;;6.28;;
18520;SDS011;9390;51.244;6.982;2023-03-05T10:37:51;22.63;;;6.65;;
18520;SDS011;9390;51.244;6.982;2023-03-05T10:40:28;11.93;;;5.63;;
18520;SDS011;9390;51.244;6.982;2023-03-05T10:43:04;13.40;;;6.68;;
18520;SDS011;9390;51.244;6.982;2023-03-05T10:45:42;17.25;;;6.75;;
18520;SDS011;9390;51.244;6.982;2023-03-05T10:48:25;14.02;;;7.03;;
18520;SDS011;9390;51.244;6.982;2023-03-05T10:50:59;10.73;;;5.60;;
18520;SDS011;9390;51.244;6.982;2023-03-05T10:53:32;14.23;;;5.97;;
18520;SDS011;9390;51.244;6.982;2023-03-05T10:56:05;10.38;;;5.18;;
18520;SDS011;9390;51.244;6.982;2023-03-05T10:58:37;13.50;;;5.18;;
18520;SDS011;9390;51.244;6.982;2023-03-05T11:01:19;15.77;;;5.80;;
18520;SDS011;9390;51.244;6.982;2023-03-05T11:03:52;11.55;;;5.43;;
18520;SDS011;9390;51.244;6.982;2023-03-05T11:06:26;9.95;;;4.88;;
18520;SDS011;9390;51.244;6.982;2023-03-05T11:09:16;9.63;;;4.53;;
18520;SDS011;9390;51.244;6.982;2023-03-05T11:15:00;10.52;;;5.00;;
18520;SDS011;9390;51.244;6.982;2023-03-05T11:17:37;9.70;;;4.70;;
18520;SDS011;9390;51.244;6.982;2023-03-05T11:23:08;9.37;;;4.83;;
18520;SDS011;9390;51.244;6.982;2023-03-05T11:25:51;10.63;;;4.93;;
18520;SDS011;9390;51.244;6.982;2023-03-05T11:28:25;9.25;;;4.25;;
18520;SDS011;9390;51.244;6.982;2023-03-05T11:31:11;12.27;;;5.15;;
18520;SDS011;9390;51.244;6.982;2023-03-05T11:33:55;14.15;;;5.30;;
18520;SDS011;9390;51.244;6.982;2023-03-05T11:36:29;14.77;;;4.78;;
18520;SDS011;9390;51.244;6.982;2023-03-05T11:39:08;8.02;;;4.30;;
18520;SDS011;9390;51.244;6.982;2023-03-05T11:41:41;15.52;;;4.30;;
18520;SDS011;9390;51.244;6.982;2023-03-05T11:44:15;8.93;;;4.20;;
18520;SDS011;9390;51.244;6.982;2023-03-05T11:46:53;10.82;;;5.13;;
18520;SDS011;9390;51.244;6.982;2023-03-05T11:49:28;10.30;;;4.68;;
18520;SDS011;9390;51.244;6.982;2023-03-05T11:52:01;13.43;;;5.57;;
18520;SDS011;9390;51.244;6.982;2023-03-05T11:54:38;12.85;;;6.53;;
18520;SDS011;9390;51.244;6.982;2023-03-05T11:57:12;14.45;;;5.93;;
18520;SDS011;9390;51.244;6.982;2023-03-05T12:02:18;11.98;;;4.28;;
18520;SDS011;9390;51.244;6.982;2023-03-05T12:04:52;10.82;;;3.80;;
18520;SDS011;9390;51.244;6.982;2023-03-05T12:07:27;9.52;;;3.75;;
18520;SDS011;9390;51.244;6.982;2023-03-05T12:10:03;8.40;;;4.43;;
18520;SDS011;9390;51.244;6.982;2023-03-05T12:12:37;9.80;;;3.72;;
18520;SDS011;9390;51.244;6.982;2023-03-05T12:15:20;12.02;;;4.60;;
18520;SDS011;9390;51.244;6.982;2023-03-05T12:18:03;11.00;;;4.60;;
18520;SDS011;9390;51.244;6.982;2023-03-05T12:20:43;10.57;;;4.55;;
18520;SDS011;9390;51.244;6.982;2023-03-05T12:23:18;11.60;;;5.28;;
18520;SDS011;9390;51.244;6.982;2023-03-05T12:25:51;12.55;;;5.60;;
18520;SDS011;9390;51.244;6.982;2023-03-05T12:31:34;11.77;;;3.95;;
18520;SDS011;9390;51.244;6.982;2023-03-05T12:37:14;6.80;;;3.10;;
18520;SDS011;9390;51.244;6.982;2023-03-05T12:40:23;9.95;;;3.55;;
18520;SDS011;9390;51.244;6.982;2023-03-05T12:42:57;9.27;;;2.95;;
18520;SDS011;9390;51.244;6.982;2023-03-05T12:45:30;11.07;;;4.10;;
18520;SDS011;9390;51.244;6.982;2023-03-05T12:51:13;6.80;;;3.30;;
18520;SDS011;9390;51.244;6.982;2023-03-05T12:56:58;10.70;;;4.15;;
18520;SDS011;9390;51.244;6.982;2023-03-05T12:59:41;10.27;;;3.97;;
18520;SDS011;9390;51.244;6.982;2023-03-05T13:02:18;8.60;;;4.07;;
18520;SDS011;9390;51.244;6.982;2023-03-05T13:04:52;9.77;;;4.60;;
18520;SDS011;9390;51.244;6.982;2023-03-05T13:07:27;10.90;;;4.00;;
18520;SDS011;9390;51.244;6.982;2023-03-05T13:10:00;9.52;;;4.18;;
18520;SDS011;9390;51.244;6.982;2023-03-05T13:12:31;10.93;;;4.18;;
18520;SDS011;9390;51.244;6.982;2023-03-05T13:15:05;10.70;;;4.30;;
18520;SDS011;9390;51.244;6.982;2023-03-05T13:17:39;8.25;;;3.67;;
18520;SDS011;9390;51.244;6.982;2023-03-05T13:20:24;9.02;;;4.10;;
18520;SDS011;9390;51.244;6.982;2023-03-05T13:23:04;9.38;;;4.13;;
18520;SDS011;9390;51.244;6.982;2023-03-05T13:25:42;9.45;;;4.55;;
18520;SDS011;9390;51.244;6.982;2023-03-05T13:28:15;7.95;;;4.50;;
18520;SDS011;9390;51.244;6.982;2023-03-05T13:30:49;9.20;;;5.53;;
18520;SDS011;9390;51.244;6.982;2023-03-05T13:33:23;12.98;;;4.90;;
18520;SDS011;9390;51.244;6.982;2023-03-05T13:35:56;8.45;;;4.10;;
18520;SDS011;9390;51.244;6.982;2023-03-05T13:38:29;8.95;;;4.68;;
18520;SDS011;9390;51.244;6.982;2023-03-05T13:41:16;8.90;;;4.47;;
18520;SDS011;9390;51.244;6.982;2023-03-05T13:43:51;12.40;;;5.10;;
18520;SDS011;9390;51.244;6.982;2023-03-05T13:48:56;11.32;;;4.95;;
18520;SDS011;9390;51.244;6.982;2023-03-05T13:51:41;10.82;;;4.57;;
18520;SDS011;9390;51.244;6.982;2023-03-05T13:54:13;12.27;;;4.97;;
18520;SDS011;9390;51.244;6.982;2023-03-05T13:56:51;10.98;;;5.00;;
18520;SDS011;9390;51.244;6.982;2023-03-05T13:59:24;9.85;;;4.78;;
18520;SDS011;9390;51.244;6.982;2023-03-05T14:01:57;10.10;;;4.68;;
18520;SDS011;9390;51.244;6.982;2023-03-05T14:04:29;9.38;;;4.32;;
18520;SDS011;9390;51.244;6.982;2023-03-05T14:07:05;11.55;;;4.38;;
18520;SDS011;9390;51.244;6.982;2023-03-05T14:09:44;10.23;;;4.20;;
18520;SDS011;9390;51.244;6.982;2023-03-05T14:12:22;10.82;;;4.68;;
18520;SDS011;9390;51.244;6.982;2023-03-05T14:14:57;9.13;;;4.55;;
18520;SDS011;9390;51.244;6.982;2023-03-05T14:17:34;7.88;;;4.05;;
18520;SDS011;9390;51.244;6.982;2023-03-05T14:20:16;9.82;;;3.67;;
18520;SDS011;9390;51.244;6.982;2023-03-05T14:25:28;8.65;;;3.97;;
18520;SDS011;9390;51.244;6.982;2023-03-05T14:28:05;9.05;;;3.90;;
18520;SDS011;9390;51.244;6.982;2023-03-05T14:30:37;8.20;;;3.45;;
18520;SDS011;9390;51.244;6.982;2023-03-05T14:33:16;9.63;;;3.40;;
18520;SDS011;9390;51.244;6.982;2023-03-05T14:35:52;9.57;;;3.20;;
18520;SDS011;9390;51.244;6.982;2023-03-05T14:38:24;6.75;;;3.42;;
18520;SDS011;9390;51.244;6.982;2023-03-05T14:40:57;6.93;;;3.20;;
18520;SDS011;9390;51.244;6.982;2023-03-05T14:43:30;8.68;;;3.13;;
18520;SDS011;9390;51.244;6.982;2023-03-05T14:46:03;9.48;;;3.40;;
18520;SDS011;9390;51.244;6.982;2023-03-05T14:48:35;8.15;;;3.63;;
18520;SDS011;9390;51.244;6.982;2023-03-05T14:51:06;7.90;;;3.72;;
18520;SDS011;9390;51.244;6.982;2023-03-05T14:53:41;12.85;;;3.88;;
18520;SDS011;9390;51.244;6.982;2023-03-05T14:56:16;7.38;;;4.00;;
18520;SDS011;9390;51.244;6.982;2023-03-05T14:58:50;8.13;;;4.10;;
18520;SDS011;9390;51.244;6.982;2023-03-05T15:01:21;10.32;;;5.13;;
18520;SDS011;9390;51.244;6.982;2023-03-05T15:03:53;10.60;;;4.55;;
18520;SDS011;9390;51.244;6.982;2023-03-05T15:06:26;9.73;;;4.22;;
18520;SDS011;9390;51.244;6.982;2023-03-05T15:09:02;11.18;;;5.32;;
18520;SDS011;9390;51.244;6.982;2023-03-05T15:11:34;14.13;;;4.63;;
18520;SDS011;9390;51.244;6.982;2023-03-05T15:14:07;10.25;;;4.45;;
18520;SDS011;9390;51.244;6.982;2023-03-05T15:16:40;9.10;;;4.57;;
18520;SDS011;9390;51.244;6.982;2023-03-05T15:19:13;9.52;;;4.53;;
18520;SDS011;9390;51.244;6.982;2023-03-05T15:21:44;14.45;;;5.05;;
18520;SDS011;9390;51.244;6.982;2023-03-05T15:24:16;11.73;;;4.93;;
18520;SDS011;9390;51.244;6.982;2023-03-05T15:26:47;10.68;;;5.65;;
18520;SDS011;9390;51.244;6.982;2023-03-05T15:29:20;8.73;;;4.18;;
18520;SDS011;9390;51.244;6.982;2023-03-05T15:31:51;9.98;;;4.47;;
18520;SDS011;9390;51.244;6.982;2023-03-05T15:34:23;10.43;;;3.97;;
18520;SDS011;9390;51.244;6.982;2023-03-05T15:36:54;7.50;;;3.50;;
18520;SDS011;9390;51.244;6.982;2023-03-05T15:39:25;9.35;;;3.22;;
18520;SDS011;9390;51.244;6.982;2023-03-05T15:41:57;7.90;;;3.53;;
18520;SDS011;9390;51.244;6.982;2023-03-05T15:44:30;7.75;;;3.40;;
18520;SDS011;9390;51.244;6.982;2023-03-05T15:47:01;6.65;;;3.58;;
18520;SDS011;9390;51.244;6.982;2023-03-05T15:49:32;8.38;;;3.75;;
18520;SDS011;9390;51.244;6.982;2023-03-05T15:52:04;10.23;;;4.72;;
18520;SDS011;9390;51.244;6.982;2023-03-05T15:54:35;7.65;;;4.10;;
18520;SDS011;9390;51.244;6.982;2023-03-05T15:57:08;8.10;;;4.40;;
18520;SDS011;9390;51.244;6.982;2023-03-05T15:59:41;8.77;;;4.70;;
18520;SDS011;9390;51.244;6.982;2023-03-05T16:02:13;9.35;;;4.78;;
18520;SDS011;9390;51.244;6.982;2023-03-05T16:04:44;9.38;;;4.65;;
18520;SDS011;9390;51.244;6.982;2023-03-05T16:07:15;10.85;;;5.00;;
18520;SDS011;9390;51.244;6.982;2023-03-05T16:09:47;12.18;;;5.53;;